sensor_id;sensor_type;location;lat;lon;timestamp;P1;durP1;ratioP1;P2;durP2;ratioP2
54430;SDS011;40342;52.998;5.862;2022-07-18T00:02:11;7.50;;;5.75;;
54430;SDS011;40342;52.998;5.862;2022-07-18T00:04:39;6.05;;;5.25;;
54430;SDS011;40342;52.998;5.862;2022-07-18T00:07:04;5.68;;;5.18;;
54430;SDS011;40342;52.998;5.862;2022-07-18T00:09:30;3.92;;;3.60;;
54430;SDS011;40342;52.998;5.862;2022-07-18T00:11:56;5.53;;;5.00;;
54430;SDS011;40342;52.998;5.862;2022-07-18T00:14:21;5.45;;;4.97;;
54430;SDS011;40342;52.998;5.862;2022-07-18T00:16:52;6.30;;;5.38;;
54430;SDS011;40342;52.998;5.862;2022-07-18T00:19:18;6.10;;;4.97;;
54430;SDS011;40342;52.998;5.862;2022-07-18T00:21:44;5.35;;;4.88;;
54430;SDS011;40342;52.998;5.862;2022-07-18T00:24:09;5.72;;;5.13;;
54430;SDS011;40342;52.998;5.862;2022-07-18T00:26:35;4.88;;;4.47;;
54430;SDS011;40342;52.998;5.862;2022-07-18T00:29:02;5.10;;;4.18;;
54430;SDS011;40342;52.998;5.862;2022-07-18T00:31:30;5.38;;;4.88;;
54430;SDS011;40342;52.998;5.862;2022-07-18T00:33:56;4.85;;;3.78;;
54430;SDS011;40342;52.998;5.862;2022-07-18T00:36:32;3.63;;;3.33;;
54430;SDS011;40342;52.998;5.862;2022-07-18T00:39:00;4.28;;;3.65;;
54430;SDS011;40342;52.998;5.862;2022-07-18T00:41:26;4.07;;;3.70;;
54430;SDS011;40342;52.998;5.862;2022-07-18T00:43:52;9.70;;;5.18;;
54430;SDS011;40342;52.998;5.862;2022-07-18T00:46:23;5.45;;;4.95;;
54430;SDS011;40342;52.998;5.862;2022-07-18T00:48:52;6.15;;;5.38;;
54430;SDS011;40342;52.998;5.862;2022-07-18T00:51:20;5.75;;;5.07;;
54430;SDS011;40342;52.998;5.862;2022-07-18T00:53:47;5.85;;;4.93;;
54430;SDS011;40342;52.998;5.862;2022-07-18T00:56:16;6.07;;;5.28;;
54430;SDS011;40342;52.998;5.862;2022-07-18T00:58:43;6.30;;;4.80;;
54430;SDS011;40342;52.998;5.862;2022-07-18T01:01:26;9.88;;;5.32;;
54430;SDS011;40342;52.998;5.862;2022-07-18T01:04:12;6.60;;;4.90;;
54430;SDS011;40342;52.998;5.862;2022-07-18T01:06:43;10.30;;;5.13;;
54430;SDS011;40342;52.998;5.862;2022-07-18T01:09:09;5.82;;;5.25;;
54430;SDS011;40342;52.998;5.862;2022-07-18T01:11:37;7.28;;;5.47;;
54430;SDS011;40342;52.998;5.862;2022-07-18T01:14:04;6.05;;;5.25;;
54430;SDS011;40342;52.998;5.862;2022-07-18T01:16:31;7.65;;;5.38;;
54430;SDS011;40342;52.998;5.862;2022-07-18T01:18:57;6.38;;;5.30;;
54430;SDS011;40342;52.998;5.862;2022-07-18T01:21:23;5.72;;;5.15;;
54430;SDS011;40342;52.998;5.862;2022-07-18T01:23:49;5.93;;;5.22;;
54430;SDS011;40342;52.998;5.862;2022-07-18T01:26:15;5.97;;;5.10;;
54430;SDS011;40342;52.998;5.862;2022-07-18T01:28:42;7.15;;;5.82;;
54430;SDS011;40342;52.998;5.862;2022-07-18T01:31:13;8.52;;;5.47;;
54430;SDS011;40342;52.998;5.862;2022-07-18T01:33:39;7.22;;;4.90;;
54430;SDS011;40342;52.998;5.862;2022-07-18T01:36:05;5.03;;;4.25;;
54430;SDS011;40342;52.998;5.862;2022-07-18T01:38:32;10.95;;;5.50;;
54430;SDS011;40342;52.998;5.862;2022-07-18T01:40:59;6.70;;;5.90;;
54430;SDS011;40342;52.998;5.862;2022-07-18T01:43:25;9.57;;;6.22;;
54430;SDS011;40342;52.998;5.862;2022-07-18T01:45:51;6.68;;;5.97;;
54430;SDS011;40342;52.998;5.862;2022-07-18T01:48:22;8.20;;;6.03;;
54430;SDS011;40342;52.998;5.862;2022-07-18T01:50:51;7.28;;;5.97;;
54430;SDS011;40342;52.998;5.862;2022-07-18T01:53:24;6.07;;;5.40;;
54430;SDS011;40342;52.998;5.862;2022-07-18T01:55:51;9.18;;;6.93;;
54430;SDS011;40342;52.998;5.862;2022-07-18T01:58:19;7.82;;;6.03;;
54430;SDS011;40342;52.998;5.862;2022-07-18T02:00:45;7.93;;;7.10;;
54430;SDS011;40342;52.998;5.862;2022-07-18T02:03:11;8.40;;;7.10;;
54430;SDS011;40342;52.998;5.862;2022-07-18T02:05:36;8.98;;;7.57;;
54430;SDS011;40342;52.998;5.862;2022-07-18T02:08:02;7.80;;;7.00;;
54430;SDS011;40342;52.998;5.862;2022-07-18T02:10:28;9.80;;;7.57;;
54430;SDS011;40342;52.998;5.862;2022-07-18T02:12:56;8.10;;;7.30;;
54430;SDS011;40342;52.998;5.862;2022-07-18T02:15:22;7.90;;;6.60;;
54430;SDS011;40342;52.998;5.862;2022-07-18T02:17:47;8.57;;;7.15;;
54430;SDS011;40342;52.998;5.862;2022-07-18T02:20:15;8.45;;;7.50;;
54430;SDS011;40342;52.998;5.862;2022-07-18T02:22:44;9.52;;;7.05;;
54430;SDS011;40342;52.998;5.862;2022-07-18T02:25:12;10.57;;;7.70;;
54430;SDS011;40342;52.998;5.862;2022-07-18T02:27:40;7.75;;;6.70;;
54430;SDS011;40342;52.998;5.862;2022-07-18T02:30:07;8.35;;;7.53;;
54430;SDS011;40342;52.998;5.862;2022-07-18T02:32:36;7.97;;;7.18;;
54430;SDS011;40342;52.998;5.862;2022-07-18T02:35:03;10.30;;;7.80;;
54430;SDS011;40342;52.998;5.862;2022-07-18T02:37:30;8.80;;;7.90;;
54430;SDS011;40342;52.998;5.862;2022-07-18T02:39:55;11.48;;;8.50;;
54430;SDS011;40342;52.998;5.862;2022-07-18T02:42:28;9.93;;;8.10;;
54430;SDS011;40342;52.998;5.862;2022-07-18T02:44:54;9.20;;;8.00;;
54430;SDS011;40342;52.998;5.862;2022-07-18T02:47:19;13.38;;;8.38;;
54430;SDS011;40342;52.998;5.862;2022-07-18T02:49:47;10.05;;;8.07;;
54430;SDS011;40342;52.998;5.862;2022-07-18T02:52:13;9.93;;;8.13;;
54430;SDS011;40342;52.998;5.862;2022-07-18T02:54:39;12.70;;;9.13;;
54430;SDS011;40342;52.998;5.862;2022-07-18T02:57:04;9.70;;;8.40;;
54430;SDS011;40342;52.998;5.862;2022-07-18T02:59:30;10.57;;;7.93;;
54430;SDS011;40342;52.998;5.862;2022-07-18T03:01:58;12.23;;;8.23;;
54430;SDS011;40342;52.998;5.862;2022-07-18T03:04:24;10.02;;;7.95;;
54430;SDS011;40342;52.998;5.862;2022-07-18T03:06:50;8.23;;;6.93;;
54430;SDS011;40342;52.998;5.862;2022-07-18T03:09:18;12.05;;;8.20;;
54430;SDS011;40342;52.998;5.862;2022-07-18T03:11:44;8.15;;;7.35;;
54430;SDS011;40342;52.998;5.862;2022-07-18T03:14:10;8.68;;;7.40;;
54430;SDS011;40342;52.998;5.862;2022-07-18T03:16:38;8.38;;;7.53;;
54430;SDS011;40342;52.998;5.862;2022-07-18T03:19:04;8.45;;;7.43;;
54430;SDS011;40342;52.998;5.862;2022-07-18T03:21:29;10.02;;;7.60;;
54430;SDS011;40342;52.998;5.862;2022-07-18T03:23:55;9.38;;;7.63;;
54430;SDS011;40342;52.998;5.862;2022-07-18T03:26:23;8.15;;;7.32;;
54430;SDS011;40342;52.998;5.862;2022-07-18T03:28:51;10.57;;;8.48;;
54430;SDS011;40342;52.998;5.862;2022-07-18T03:31:17;10.63;;;7.30;;
54430;SDS011;40342;52.998;5.862;2022-07-18T03:33:45;10.13;;;7.20;;
54430;SDS011;40342;52.998;5.862;2022-07-18T03:36:13;9.38;;;8.00;;
54430;SDS011;40342;52.998;5.862;2022-07-18T03:38:41;11.95;;;8.10;;
54430;SDS011;40342;52.998;5.862;2022-07-18T03:43:40;8.98;;;8.05;;
54430;SDS011;40342;52.998;5.862;2022-07-18T03:46:13;9.23;;;8.00;;
54430;SDS011;40342;52.998;5.862;2022-07-18T03:48:39;12.57;;;7.97;;
54430;SDS011;40342;52.998;5.862;2022-07-18T03:51:07;11.40;;;8.27;;
54430;SDS011;40342;52.998;5.862;2022-07-18T03:53:32;9.82;;;8.18;;
54430;SDS011;40342;52.998;5.862;2022-07-18T03:55:58;12.93;;;7.70;;
54430;SDS011;40342;52.998;5.862;2022-07-18T03:58:24;8.38;;;6.97;;
54430;SDS011;40342;52.998;5.862;2022-07-18T04:00:58;14.75;;;7.68;;
54430;SDS011;40342;52.998;5.862;2022-07-18T04:03:23;9.43;;;7.22;;
54430;SDS011;40342;52.998;5.862;2022-07-18T04:05:49;7.53;;;6.82;;
54430;SDS011;40342;52.998;5.862;2022-07-18T04:08:15;7.50;;;6.63;;
54430;SDS011;40342;52.998;5.862;2022-07-18T04:10:41;10.05;;;7.03;;
54430;SDS011;40342;52.998;5.862;2022-07-18T04:13:08;8.55;;;6.35;;
54430;SDS011;40342;52.998;5.862;2022-07-18T04:15:36;7.38;;;6.00;;
54430;SDS011;40342;52.998;5.862;2022-07-18T04:18:03;7.03;;;6.30;;
54430;SDS011;40342;52.998;5.862;2022-07-18T04:20:30;7.78;;;6.15;;
54430;SDS011;40342;52.998;5.862;2022-07-18T04:22:57;7.13;;;6.13;;
54430;SDS011;40342;52.998;5.862;2022-07-18T04:25:28;8.45;;;6.18;;
54430;SDS011;40342;52.998;5.862;2022-07-18T04:27:57;7.35;;;5.85;;
54430;SDS011;40342;52.998;5.862;2022-07-18T04:30:31;8.40;;;6.28;;
54430;SDS011;40342;52.998;5.862;2022-07-18T04:32:57;8.32;;;6.10;;
54430;SDS011;40342;52.998;5.862;2022-07-18T04:35:25;9.10;;;6.13;;
54430;SDS011;40342;52.998;5.862;2022-07-18T04:37:50;7.53;;;6.00;;
54430;SDS011;40342;52.998;5.862;2022-07-18T04:40:16;7.88;;;6.30;;
54430;SDS011;40342;52.998;5.862;2022-07-18T04:42:42;9.50;;;6.65;;
54430;SDS011;40342;52.998;5.862;2022-07-18T04:45:09;11.02;;;6.18;;
54430;SDS011;40342;52.998;5.862;2022-07-18T04:47:37;5.63;;;5.13;;
54430;SDS011;40342;52.998;5.862;2022-07-18T04:50:05;10.73;;;5.88;;
54430;SDS011;40342;52.998;5.862;2022-07-18T04:52:36;14.32;;;6.75;;
54430;SDS011;40342;52.998;5.862;2022-07-18T04:55:06;6.07;;;5.47;;
54430;SDS011;40342;52.998;5.862;2022-07-18T04:57:32;10.00;;;6.35;;
54430;SDS011;40342;52.998;5.862;2022-07-18T05:00:07;7.75;;;5.25;;
54430;SDS011;40342;52.998;5.862;2022-07-18T05:02:38;9.10;;;6.72;;
54430;SDS011;40342;52.998;5.862;2022-07-18T05:05:11;11.65;;;6.78;;
54430;SDS011;40342;52.998;5.862;2022-07-18T05:07:42;10.02;;;6.05;;
54430;SDS011;40342;52.998;5.862;2022-07-18T05:10:09;8.05;;;5.85;;
54430;SDS011;40342;52.998;5.862;2022-07-18T05:12:36;7.95;;;5.93;;
54430;SDS011;40342;52.998;5.862;2022-07-18T05:15:04;10.65;;;6.25;;
54430;SDS011;40342;52.998;5.862;2022-07-18T05:17:31;9.45;;;5.95;;
54430;SDS011;40342;52.998;5.862;2022-07-18T05:20:02;13.07;;;5.90;;
54430;SDS011;40342;52.998;5.862;2022-07-18T05:22:29;13.70;;;6.43;;
54430;SDS011;40342;52.998;5.862;2022-07-18T05:24:57;12.00;;;6.45;;
54430;SDS011;40342;52.998;5.862;2022-07-18T05:27:23;8.60;;;5.88;;
54430;SDS011;40342;52.998;5.862;2022-07-18T05:29:48;8.63;;;6.00;;
54430;SDS011;40342;52.998;5.862;2022-07-18T05:32:14;8.43;;;5.95;;
54430;SDS011;40342;52.998;5.862;2022-07-18T05:34:42;9.02;;;5.57;;
54430;SDS011;40342;52.998;5.862;2022-07-18T05:37:08;6.47;;;5.68;;
54430;SDS011;40342;52.998;5.862;2022-07-18T05:39:33;9.13;;;5.75;;
54430;SDS011;40342;52.998;5.862;2022-07-18T05:42:00;10.90;;;5.53;;
54430;SDS011;40342;52.998;5.862;2022-07-18T05:44:26;6.90;;;5.43;;
54430;SDS011;40342;52.998;5.862;2022-07-18T05:46:54;15.23;;;6.75;;
54430;SDS011;40342;52.998;5.862;2022-07-18T05:49:22;7.28;;;5.95;;
54430;SDS011;40342;52.998;5.862;2022-07-18T05:51:48;11.95;;;6.97;;
54430;SDS011;40342;52.998;5.862;2022-07-18T05:54:15;7.50;;;6.28;;
54430;SDS011;40342;52.998;5.862;2022-07-18T05:56:51;7.18;;;6.22;;
54430;SDS011;40342;52.998;5.862;2022-07-18T05:59:25;9.82;;;5.88;;
54430;SDS011;40342;52.998;5.862;2022-07-18T06:01:50;9.73;;;6.38;;
54430;SDS011;40342;52.998;5.862;2022-07-18T06:04:16;8.73;;;5.93;;
54430;SDS011;40342;52.998;5.862;2022-07-18T06:06:44;7.40;;;6.10;;
54430;SDS011;40342;52.998;5.862;2022-07-18T06:09:10;7.72;;;5.70;;
54430;SDS011;40342;52.998;5.862;2022-07-18T06:11:37;8.55;;;6.00;;
54430;SDS011;40342;52.998;5.862;2022-07-18T06:14:05;8.63;;;6.30;;
54430;SDS011;40342;52.998;5.862;2022-07-18T06:16:31;7.63;;;6.10;;
54430;SDS011;40342;52.998;5.862;2022-07-18T06:18:57;9.57;;;6.07;;
54430;SDS011;40342;52.998;5.862;2022-07-18T06:21:23;11.93;;;6.20;;
54430;SDS011;40342;52.998;5.862;2022-07-18T06:23:49;10.55;;;6.32;;
54430;SDS011;40342;52.998;5.862;2022-07-18T06:26:14;8.75;;;5.95;;
54430;SDS011;40342;52.998;5.862;2022-07-18T06:28:40;8.40;;;5.47;;
54430;SDS011;40342;52.998;5.862;2022-07-18T06:31:06;9.10;;;6.05;;
54430;SDS011;40342;52.998;5.862;2022-07-18T06:33:31;9.15;;;5.93;;
54430;SDS011;40342;52.998;5.862;2022-07-18T06:35:57;10.00;;;5.70;;
54430;SDS011;40342;52.998;5.862;2022-07-18T06:38:23;9.73;;;6.07;;
54430;SDS011;40342;52.998;5.862;2022-07-18T06:40:51;9.05;;;6.57;;
54430;SDS011;40342;52.998;5.862;2022-07-18T06:43:16;10.65;;;6.43;;
54430;SDS011;40342;52.998;5.862;2022-07-18T06:45:47;8.07;;;5.63;;
54430;SDS011;40342;52.998;5.862;2022-07-18T06:48:14;9.13;;;5.82;;
54430;SDS011;40342;52.998;5.862;2022-07-18T06:50:40;7.70;;;4.97;;
54430;SDS011;40342;52.998;5.862;2022-07-18T06:53:06;7.05;;;5.07;;
54430;SDS011;40342;52.998;5.862;2022-07-18T06:55:31;5.63;;;5.03;;
54430;SDS011;40342;52.998;5.862;2022-07-18T06:57:59;6.90;;;5.22;;
54430;SDS011;40342;52.998;5.862;2022-07-18T07:00:25;6.63;;;5.28;;
54430;SDS011;40342;52.998;5.862;2022-07-18T07:02:51;8.73;;;5.18;;
54430;SDS011;40342;52.998;5.862;2022-07-18T07:05:17;8.68;;;4.38;;
54430;SDS011;40342;52.998;5.862;2022-07-18T07:07:44;7.10;;;4.72;;
54430;SDS011;40342;52.998;5.862;2022-07-18T07:10:10;6.25;;;4.53;;
54430;SDS011;40342;52.998;5.862;2022-07-18T07:12:40;9.23;;;4.60;;
54430;SDS011;40342;52.998;5.862;2022-07-18T07:15:06;6.60;;;4.50;;
54430;SDS011;40342;52.998;5.862;2022-07-18T07:17:33;6.53;;;3.63;;
54430;SDS011;40342;52.998;5.862;2022-07-18T07:19:59;5.47;;;4.22;;
54430;SDS011;40342;52.998;5.862;2022-07-18T07:22:24;8.90;;;4.43;;
54430;SDS011;40342;52.998;5.862;2022-07-18T07:24:50;6.75;;;3.95;;
54430;SDS011;40342;52.998;5.862;2022-07-18T07:27:16;5.90;;;3.60;;
54430;SDS011;40342;52.998;5.862;2022-07-18T07:29:41;5.30;;;3.85;;
54430;SDS011;40342;52.998;5.862;2022-07-18T07:32:07;5.85;;;3.72;;
54430;SDS011;40342;52.998;5.862;2022-07-18T07:34:32;5.32;;;3.60;;
54430;SDS011;40342;52.998;5.862;2022-07-18T07:36:58;5.93;;;3.75;;
54430;SDS011;40342;52.998;5.862;2022-07-18T07:39:24;5.60;;;3.85;;
54430;SDS011;40342;52.998;5.862;2022-07-18T07:41:50;7.43;;;3.72;;
54430;SDS011;40342;52.998;5.862;2022-07-18T07:44:16;6.28;;;3.53;;
54430;SDS011;40342;52.998;5.862;2022-07-18T07:46:41;9.30;;;3.92;;
54430;SDS011;40342;52.998;5.862;2022-07-18T07:49:07;6.05;;;3.53;;
54430;SDS011;40342;52.998;5.862;2022-07-18T07:51:32;7.78;;;3.58;;
54430;SDS011;40342;52.998;5.862;2022-07-18T07:53:58;8.30;;;3.55;;
54430;SDS011;40342;52.998;5.862;2022-07-18T07:56:24;4.28;;;3.30;;
54430;SDS011;40342;52.998;5.862;2022-07-18T07:58:49;6.00;;;3.53;;
54430;SDS011;40342;52.998;5.862;2022-07-18T08:01:17;7.00;;;3.63;;
54430;SDS011;40342;52.998;5.862;2022-07-18T08:03:45;7.00;;;3.17;;
54430;SDS011;40342;52.998;5.862;2022-07-18T08:06:13;8.63;;;3.60;;
54430;SDS011;40342;52.998;5.862;2022-07-18T08:08:39;6.88;;;3.72;;
54430;SDS011;40342;52.998;5.862;2022-07-18T08:11:04;6.50;;;3.50;;
54430;SDS011;40342;52.998;5.862;2022-07-18T08:13:31;6.80;;;2.95;;
54430;SDS011;40342;52.998;5.862;2022-07-18T08:15:56;8.00;;;3.55;;
54430;SDS011;40342;52.998;5.862;2022-07-18T08:18:22;6.20;;;2.70;;
54430;SDS011;40342;52.998;5.862;2022-07-18T08:20:47;6.55;;;3.20;;
54430;SDS011;40342;52.998;5.862;2022-07-18T08:23:13;6.85;;;3.50;;
54430;SDS011;40342;52.998;5.862;2022-07-18T08:25:40;5.00;;;3.03;;
54430;SDS011;40342;52.998;5.862;2022-07-18T08:28:08;7.50;;;3.42;;
54430;SDS011;40342;52.998;5.862;2022-07-18T08:30:34;5.95;;;2.70;;
54430;SDS011;40342;52.998;5.862;2022-07-18T08:33:00;5.72;;;3.00;;
54430;SDS011;40342;52.998;5.862;2022-07-18T08:35:26;8.25;;;3.28;;
54430;SDS011;40342;52.998;5.862;2022-07-18T08:37:53;7.70;;;3.00;;
54430;SDS011;40342;52.998;5.862;2022-07-18T08:40:18;6.15;;;2.72;;
54430;SDS011;40342;52.998;5.862;2022-07-18T08:42:44;5.55;;;2.55;;
54430;SDS011;40342;52.998;5.862;2022-07-18T08:45:11;4.18;;;2.28;;
54430;SDS011;40342;52.998;5.862;2022-07-18T08:47:38;5.65;;;2.58;;
54430;SDS011;40342;52.998;5.862;2022-07-18T08:50:08;6.15;;;2.58;;
54430;SDS011;40342;52.998;5.862;2022-07-18T08:52:35;9.65;;;3.17;;
54430;SDS011;40342;52.998;5.862;2022-07-18T08:55:02;5.80;;;2.88;;
54430;SDS011;40342;52.998;5.862;2022-07-18T08:57:29;5.00;;;2.38;;
54430;SDS011;40342;52.998;5.862;2022-07-18T08:59:54;5.20;;;2.92;;
54430;SDS011;40342;52.998;5.862;2022-07-18T09:02:23;8.00;;;2.72;;
54430;SDS011;40342;52.998;5.862;2022-07-18T09:04:50;5.72;;;2.67;;
54430;SDS011;40342;52.998;5.862;2022-07-18T09:07:23;6.30;;;2.67;;
54430;SDS011;40342;52.998;5.862;2022-07-18T09:09:59;10.55;;;2.80;;
54430;SDS011;40342;52.998;5.862;2022-07-18T09:12:26;13.23;;;2.92;;
54430;SDS011;40342;52.998;5.862;2022-07-18T09:14:53;3.90;;;2.58;;
54430;SDS011;40342;52.998;5.862;2022-07-18T09:17:20;7.07;;;2.63;;
54430;SDS011;40342;52.998;5.862;2022-07-18T09:19:56;6.80;;;3.22;;
54430;SDS011;40342;52.998;5.862;2022-07-18T09:22:22;8.70;;;2.75;;
54430;SDS011;40342;52.998;5.862;2022-07-18T09:27:24;9.05;;;2.95;;
54430;SDS011;40342;52.998;5.862;2022-07-18T09:32:49;8.18;;;2.90;;
54430;SDS011;40342;52.998;5.862;2022-07-18T09:35:19;8.77;;;2.38;;
54430;SDS011;40342;52.998;5.862;2022-07-18T09:37:57;8.00;;;2.45;;
54430;SDS011;40342;52.998;5.862;2022-07-18T09:40:24;6.75;;;2.45;;
54430;SDS011;40342;52.998;5.862;2022-07-18T09:42:54;8.43;;;2.60;;
54430;SDS011;40342;52.998;5.862;2022-07-18T09:45:31;7.40;;;2.67;;
54430;SDS011;40342;52.998;5.862;2022-07-18T09:48:02;5.25;;;2.35;;
54430;SDS011;40342;52.998;5.862;2022-07-18T09:50:34;6.32;;;2.30;;
54430;SDS011;40342;52.998;5.862;2022-07-18T09:53:06;6.47;;;2.47;;
54430;SDS011;40342;52.998;5.862;2022-07-18T09:55:34;6.32;;;2.70;;
54430;SDS011;40342;52.998;5.862;2022-07-18T09:58:01;4.70;;;2.22;;
54430;SDS011;40342;52.998;5.862;2022-07-18T10:00:33;5.32;;;2.33;;
54430;SDS011;40342;52.998;5.862;2022-07-18T10:03:01;16.50;;;2.67;;
54430;SDS011;40342;52.998;5.862;2022-07-18T10:05:29;4.18;;;2.05;;
54430;SDS011;40342;52.998;5.862;2022-07-18T10:07:57;11.40;;;2.17;;
54430;SDS011;40342;52.998;5.862;2022-07-18T10:10:26;6.25;;;1.70;;
54430;SDS011;40342;52.998;5.862;2022-07-18T10:12:58;4.50;;;1.83;;
54430;SDS011;40342;52.998;5.862;2022-07-18T10:15:26;4.00;;;1.90;;
54430;SDS011;40342;52.998;5.862;2022-07-18T10:17:54;7.45;;;2.10;;
54430;SDS011;40342;52.998;5.862;2022-07-18T10:20:27;4.82;;;1.98;;
54430;SDS011;40342;52.998;5.862;2022-07-18T10:23:08;7.90;;;1.90;;
54430;SDS011;40342;52.998;5.862;2022-07-18T10:31:20;10.43;;;2.22;;
54430;SDS011;40342;52.998;5.862;2022-07-18T10:36:31;5.25;;;2.13;;
54430;SDS011;40342;52.998;5.862;2022-07-18T10:42:19;2.97;;;2.08;;
54430;SDS011;40342;52.998;5.862;2022-07-18T10:47:03;4.35;;;1.98;;
54430;SDS011;40342;52.998;5.862;2022-07-18T11:00:11;4.88;;;1.90;;
54430;SDS011;40342;52.998;5.862;2022-07-18T11:13:21;3.28;;;1.50;;
54430;SDS011;40342;52.998;5.862;2022-07-18T11:16:15;3.63;;;1.48;;
54430;SDS011;40342;52.998;5.862;2022-07-18T11:21:19;5.80;;;2.00;;
54430;SDS011;40342;52.998;5.862;2022-07-18T11:24:06;3.10;;;1.88;;
54430;SDS011;40342;52.998;5.862;2022-07-18T11:26:38;7.65;;;1.98;;
54430;SDS011;40342;52.998;5.862;2022-07-18T11:29:09;21.10;;;2.55;;
54430;SDS011;40342;52.998;5.862;2022-07-18T11:31:42;4.43;;;1.98;;
54430;SDS011;40342;52.998;5.862;2022-07-18T11:34:16;4.90;;;2.13;;
54430;SDS011;40342;52.998;5.862;2022-07-18T11:36:44;6.47;;;1.83;;
54430;SDS011;40342;52.998;5.862;2022-07-18T11:39:11;6.70;;;2.10;;
54430;SDS011;40342;52.998;5.862;2022-07-18T11:41:39;5.70;;;1.88;;
54430;SDS011;40342;52.998;5.862;2022-07-18T11:44:05;5.13;;;2.15;;
54430;SDS011;40342;52.998;5.862;2022-07-18T11:47:07;6.20;;;2.53;;
54430;SDS011;40342;52.998;5.862;2022-07-18T11:49:34;4.72;;;2.20;;
54430;SDS011;40342;52.998;5.862;2022-07-18T11:52:01;4.18;;;2.22;;
54430;SDS011;40342;52.998;5.862;2022-07-18T11:54:28;5.90;;;2.42;;
54430;SDS011;40342;52.998;5.862;2022-07-18T11:56:54;11.18;;;2.58;;
54430;SDS011;40342;52.998;5.862;2022-07-18T11:59:21;7.07;;;2.38;;
54430;SDS011;40342;52.998;5.862;2022-07-18T12:01:59;6.60;;;2.00;;
54430;SDS011;40342;52.998;5.862;2022-07-18T12:04:24;6.18;;;1.90;;
54430;SDS011;40342;52.998;5.862;2022-07-18T12:09:43;4.10;;;1.88;;
54430;SDS011;40342;52.998;5.862;2022-07-18T12:12:09;2.05;;;1.85;;
54430;SDS011;40342;52.998;5.862;2022-07-18T12:14:36;5.30;;;2.20;;
54430;SDS011;40342;52.998;5.862;2022-07-18T12:17:04;3.95;;;1.90;;
54430;SDS011;40342;52.998;5.862;2022-07-18T12:19:34;6.47;;;2.15;;
54430;SDS011;40342;52.998;5.862;2022-07-18T12:22:08;3.78;;;2.10;;
54430;SDS011;40342;52.998;5.862;2022-07-18T12:27:09;2.90;;;1.77;;
54430;SDS011;40342;52.998;5.862;2022-07-18T12:35:08;5.43;;;2.30;;
54430;SDS011;40342;52.998;5.862;2022-07-18T12:37:35;5.72;;;2.20;;
54430;SDS011;40342;52.998;5.862;2022-07-18T12:40:10;3.15;;;2.00;;
54430;SDS011;40342;52.998;5.862;2022-07-18T12:42:38;2.55;;;1.90;;
54430;SDS011;40342;52.998;5.862;2022-07-18T12:45:05;8.75;;;2.70;;
54430;SDS011;40342;52.998;5.862;2022-07-18T12:47:32;5.32;;;2.15;;
54430;SDS011;40342;52.998;5.862;2022-07-18T12:49:58;9.40;;;2.20;;
54430;SDS011;40342;52.998;5.862;2022-07-18T12:52:24;5.38;;;2.30;;
54430;SDS011;40342;52.998;5.862;2022-07-18T12:54:50;6.15;;;2.78;;
54430;SDS011;40342;52.998;5.862;2022-07-18T12:57:16;3.72;;;2.30;;
54430;SDS011;40342;52.998;5.862;2022-07-18T12:59:42;3.53;;;2.13;;
54430;SDS011;40342;52.998;5.862;2022-07-18T13:02:09;3.78;;;2.10;;
54430;SDS011;40342;52.998;5.862;2022-07-18T13:04:35;2.85;;;1.50;;
54430;SDS011;40342;52.998;5.862;2022-07-18T13:07:01;2.50;;;1.30;;
54430;SDS011;40342;52.998;5.862;2022-07-18T13:09:27;14.10;;;2.15;;
54430;SDS011;40342;52.998;5.862;2022-07-18T13:11:52;2.13;;;1.08;;
54430;SDS011;40342;52.998;5.862;2022-07-18T13:14:18;3.08;;;1.52;;
54430;SDS011;40342;52.998;5.862;2022-07-18T13:16:44;13.93;;;2.10;;
54430;SDS011;40342;52.998;5.862;2022-07-18T13:19:12;1.92;;;1.35;;
54430;SDS011;40342;52.998;5.862;2022-07-18T13:21:38;24.42;;;2.60;;
54430;SDS011;40342;52.998;5.862;2022-07-18T13:24:04;12.10;;;1.80;;
54430;SDS011;40342;52.998;5.862;2022-07-18T13:26:30;3.33;;;1.50;;
54430;SDS011;40342;52.998;5.862;2022-07-18T13:28:56;15.93;;;2.15;;
54430;SDS011;40342;52.998;5.862;2022-07-18T13:31:21;6.15;;;1.92;;
54430;SDS011;40342;52.998;5.862;2022-07-18T13:34:48;5.55;;;1.80;;
54430;SDS011;40342;52.998;5.862;2022-07-18T13:36:46;4.55;;;1.83;;
54430;SDS011;40342;52.998;5.862;2022-07-18T13:39:12;2.95;;;2.00;;
54430;SDS011;40342;52.998;5.862;2022-07-18T13:41:38;2.67;;;1.77;;
54430;SDS011;40342;52.998;5.862;2022-07-18T13:44:03;3.42;;;1.60;;
54430;SDS011;40342;52.998;5.862;2022-07-18T13:46:41;3.53;;;1.90;;
54430;SDS011;40342;52.998;5.862;2022-07-18T13:49:08;9.45;;;2.00;;
54430;SDS011;40342;52.998;5.862;2022-07-18T13:51:37;6.95;;;1.88;;
54430;SDS011;40342;52.998;5.862;2022-07-18T13:54:04;3.50;;;1.80;;
54430;SDS011;40342;52.998;5.862;2022-07-18T13:56:31;10.18;;;1.80;;
54430;SDS011;40342;52.998;5.862;2022-07-18T13:58:57;4.05;;;1.70;;
54430;SDS011;40342;52.998;5.862;2022-07-18T14:01:22;4.03;;;1.88;;
54430;SDS011;40342;52.998;5.862;2022-07-18T14:03:48;5.82;;;2.30;;
54430;SDS011;40342;52.998;5.862;2022-07-18T14:06:13;7.88;;;2.05;;
54430;SDS011;40342;52.998;5.862;2022-07-18T14:08:39;2.80;;;2.03;;
54430;SDS011;40342;52.998;5.862;2022-07-18T14:11:05;17.48;;;3.03;;
54430;SDS011;40342;52.998;5.862;2022-07-18T14:13:32;15.95;;;2.30;;
54430;SDS011;40342;52.998;5.862;2022-07-18T14:15:58;9.13;;;2.10;;
54430;SDS011;40342;52.998;5.862;2022-07-18T14:18:23;5.90;;;2.25;;
54430;SDS011;40342;52.998;5.862;2022-07-18T14:20:49;4.63;;;2.40;;
54430;SDS011;40342;52.998;5.862;2022-07-18T14:23:15;30.90;;;2.95;;
54430;SDS011;40342;52.998;5.862;2022-07-18T14:25:40;3.47;;;1.80;;
54430;SDS011;40342;52.998;5.862;2022-07-18T14:28:06;4.20;;;1.92;;
54430;SDS011;40342;52.998;5.862;2022-07-18T14:30:32;3.08;;;1.80;;
54430;SDS011;40342;52.998;5.862;2022-07-18T14:32:58;6.53;;;2.13;;
54430;SDS011;40342;52.998;5.862;2022-07-18T14:35:23;5.20;;;2.30;;
54430;SDS011;40342;52.998;5.862;2022-07-18T14:37:49;3.70;;;2.58;;
54430;SDS011;40342;52.998;5.862;2022-07-18T14:40:15;3.35;;;2.70;;
54430;SDS011;40342;52.998;5.862;2022-07-18T14:42:40;3.05;;;2.60;;
54430;SDS011;40342;52.998;5.862;2022-07-18T14:45:06;3.00;;;2.28;;
54430;SDS011;40342;52.998;5.862;2022-07-18T14:47:33;6.25;;;2.58;;
54430;SDS011;40342;52.998;5.862;2022-07-18T14:50:00;3.30;;;2.80;;
54430;SDS011;40342;52.998;5.862;2022-07-18T14:52:27;5.30;;;2.80;;
54430;SDS011;40342;52.998;5.862;2022-07-18T14:54:52;4.22;;;3.38;;
54430;SDS011;40342;52.998;5.862;2022-07-18T14:57:18;3.45;;;2.90;;
54430;SDS011;40342;52.998;5.862;2022-07-18T14:59:43;3.00;;;2.80;;
54430;SDS011;40342;52.998;5.862;2022-07-18T15:02:09;7.20;;;2.80;;
54430;SDS011;40342;52.998;5.862;2022-07-18T15:04:35;3.97;;;2.75;;
54430;SDS011;40342;52.998;5.862;2022-07-18T15:07:01;7.32;;;2.42;;
54430;SDS011;40342;52.998;5.862;2022-07-18T15:09:27;2.80;;;2.38;;
54430;SDS011;40342;52.998;5.862;2022-07-18T15:11:53;4.40;;;2.92;;
54430;SDS011;40342;52.998;5.862;2022-07-18T15:14:19;9.45;;;2.70;;
54430;SDS011;40342;52.998;5.862;2022-07-18T15:16:44;4.15;;;2.50;;
54430;SDS011;40342;52.998;5.862;2022-07-18T15:19:10;3.92;;;2.45;;
54430;SDS011;40342;52.998;5.862;2022-07-18T15:21:35;9.82;;;2.50;;
54430;SDS011;40342;52.998;5.862;2022-07-18T15:24:02;4.68;;;2.70;;
54430;SDS011;40342;52.998;5.862;2022-07-18T15:26:28;2.63;;;2.33;;
54430;SDS011;40342;52.998;5.862;2022-07-18T15:28:53;2.60;;;2.40;;
54430;SDS011;40342;52.998;5.862;2022-07-18T15:31:19;4.15;;;2.30;;
54430;SDS011;40342;52.998;5.862;2022-07-18T15:33:45;3.88;;;2.28;;
54430;SDS011;40342;52.998;5.862;2022-07-18T15:36:10;4.70;;;1.77;;
54430;SDS011;40342;52.998;5.862;2022-07-18T15:38:36;3.05;;;2.00;;
54430;SDS011;40342;52.998;5.862;2022-07-18T15:41:05;4.30;;;2.03;;
54430;SDS011;40342;52.998;5.862;2022-07-18T15:43:32;7.05;;;1.83;;
54430;SDS011;40342;52.998;5.862;2022-07-18T15:45:58;2.20;;;2.00;;